sensor_id;sensor_type;location;lat;lon;timestamp;P1;durP1;ratioP1;P2;durP2;ratioP2
20729;SDS011;10526;50.850;12.928;2022-09-03T00:04:15;4.28;;;2.00;;
20729;SDS011;10526;50.850;12.928;2022-09-03T00:08:53;6.45;;;2.08;;
20729;SDS011;10526;50.850;12.928;2022-09-03T00:13:43;8.15;;;2.58;;
20729;SDS011;10526;50.850;12.928;2022-09-03T00:18:28;9.15;;;2.30;;
20729;SDS011;10526;50.850;12.928;2022-09-03T00:22:54;8.48;;;2.40;;
20729;SDS011;10526;50.850;12.928;2022-09-03T00:27:21;3.30;;;2.03;;
20729;SDS011;10526;50.850;12.928;2022-09-03T00:31:57;4.70;;;2.10;;
20729;SDS011;10526;50.850;12.928;2022-09-03T00:36:27;5.07;;;2.00;;
20729;SDS011;10526;50.850;12.928;2022-09-03T00:41:08;5.28;;;2.38;;
20729;SDS011;10526;50.850;12.928;2022-09-03T00:51:30;4.28;;;2.00;;
20729;SDS011;10526;50.850;12.928;2022-09-03T01:00:19;4.75;;;2.20;;
20729;SDS011;10526;50.850;12.928;2022-09-03T01:14:13;7.55;;;2.30;;
20729;SDS011;10526;50.850;12.928;2022-09-03T01:24:25;8.60;;;2.85;;
20729;SDS011;10526;50.850;12.928;2022-09-03T01:29:55;5.05;;;2.38;;
20729;SDS011;10526;50.850;12.928;2022-09-03T01:39:10;8.60;;;2.78;;
20729;SDS011;10526;50.850;12.928;2022-09-03T01:43:59;12.88;;;2.65;;
20729;SDS011;10526;50.850;12.928;2022-09-03T01:53:17;9.52;;;2.78;;
20729;SDS011;10526;50.850;12.928;2022-09-03T01:57:56;9.27;;;3.20;;
20729;SDS011;10526;50.850;12.928;2022-09-03T02:02:41;8.77;;;2.88;;
20729;SDS011;10526;50.850;12.928;2022-09-03T02:07:08;8.05;;;2.67;;
20729;SDS011;10526;50.850;12.928;2022-09-03T02:11:30;6.97;;;2.97;;
20729;SDS011;10526;50.850;12.928;2022-09-03T02:15:53;8.82;;;2.72;;
20729;SDS011;10526;50.850;12.928;2022-09-03T02:20:22;9.35;;;3.10;;
20729;SDS011;10526;50.850;12.928;2022-09-03T02:24:47;6.78;;;2.60;;
20729;SDS011;10526;50.850;12.928;2022-09-03T02:29:09;5.05;;;2.70;;
20729;SDS011;10526;50.850;12.928;2022-09-03T02:33:35;5.85;;;2.85;;
20729;SDS011;10526;50.850;12.928;2022-09-03T02:38:17;8.25;;;3.10;;
20729;SDS011;10526;50.850;12.928;2022-09-03T02:42:46;5.93;;;2.47;;
20729;SDS011;10526;50.850;12.928;2022-09-03T02:47:09;8.65;;;2.80;;
20729;SDS011;10526;50.850;12.928;2022-09-03T02:51:38;6.70;;;3.05;;
20729;SDS011;10526;50.850;12.928;2022-09-03T02:56:03;8.45;;;3.00;;
20729;SDS011;10526;50.850;12.928;2022-09-03T03:00:25;5.88;;;3.10;;
20729;SDS011;10526;50.850;12.928;2022-09-03T03:04:48;9.35;;;3.13;;
20729;SDS011;10526;50.850;12.928;2022-09-03T03:09:11;9.38;;;3.38;;
20729;SDS011;10526;50.850;12.928;2022-09-03T03:13:33;7.43;;;3.47;;
20729;SDS011;10526;50.850;12.928;2022-09-03T03:17:55;7.32;;;3.13;;
20729;SDS011;10526;50.850;12.928;2022-09-03T03:22:17;9.10;;;4.10;;
20729;SDS011;10526;50.850;12.928;2022-09-03T03:26:39;7.72;;;3.55;;
20729;SDS011;10526;50.850;12.928;2022-09-03T03:31:36;11.80;;;3.90;;
20729;SDS011;10526;50.850;12.928;2022-09-03T03:35:50;18.63;;;9.75;;
20729;SDS011;10526;50.850;12.928;2022-09-03T03:40:13;9.07;;;4.47;;
20729;SDS011;10526;50.850;12.928;2022-09-03T03:44:35;12.20;;;4.47;;
20729;SDS011;10526;50.850;12.928;2022-09-03T03:48:57;8.77;;;3.95;;
20729;SDS011;10526;50.850;12.928;2022-09-03T03:53:20;9.40;;;4.28;;
20729;SDS011;10526;50.850;12.928;2022-09-03T03:57:42;8.05;;;3.95;;
20729;SDS011;10526;50.850;12.928;2022-09-03T04:02:05;23.60;;;12.95;;
20729;SDS011;10526;50.850;12.928;2022-09-03T04:06:27;10.52;;;4.90;;
20729;SDS011;10526;50.850;12.928;2022-09-03T04:10:49;9.05;;;4.43;;
20729;SDS011;10526;50.850;12.928;2022-09-03T04:15:11;10.50;;;4.68;;
20729;SDS011;10526;50.850;12.928;2022-09-03T04:19:34;11.45;;;4.93;;
20729;SDS011;10526;50.850;12.928;2022-09-03T04:23:56;10.13;;;4.75;;
20729;SDS011;10526;50.850;12.928;2022-09-03T04:28:19;9.48;;;4.75;;
20729;SDS011;10526;50.850;12.928;2022-09-03T04:32:43;11.88;;;5.03;;
20729;SDS011;10526;50.850;12.928;2022-09-03T04:37:14;10.52;;;5.50;;
20729;SDS011;10526;50.850;12.928;2022-09-03T04:41:40;10.68;;;5.80;;
20729;SDS011;10526;50.850;12.928;2022-09-03T04:46:03;13.63;;;5.97;;
20729;SDS011;10526;50.850;12.928;2022-09-03T04:50:36;13.18;;;6.43;;
20729;SDS011;10526;50.850;12.928;2022-09-03T04:54:58;9.70;;;5.55;;
20729;SDS011;10526;50.850;12.928;2022-09-03T04:59:20;11.70;;;3.60;;
20729;SDS011;10526;50.850;12.928;2022-09-03T05:03:43;8.70;;;3.38;;
20729;SDS011;10526;50.850;12.928;2022-09-03T05:08:06;8.93;;;3.60;;
20729;SDS011;10526;50.850;12.928;2022-09-03T05:12:28;7.47;;;2.55;;
20729;SDS011;10526;50.850;12.928;2022-09-03T05:16:51;7.85;;;2.20;;
20729;SDS011;10526;50.850;12.928;2022-09-03T05:21:14;5.53;;;1.70;;
20729;SDS011;10526;50.850;12.928;2022-09-03T05:25:38;2.97;;;1.75;;
20729;SDS011;10526;50.850;12.928;2022-09-03T05:30:00;7.28;;;2.22;;
20729;SDS011;10526;50.850;12.928;2022-09-03T05:34:22;4.85;;;1.75;;
20729;SDS011;10526;50.850;12.928;2022-09-03T05:38:45;6.30;;;2.17;;
20729;SDS011;10526;50.850;12.928;2022-09-03T05:43:10;5.72;;;1.90;;
20729;SDS011;10526;50.850;12.928;2022-09-03T05:47:32;3.45;;;2.00;;
20729;SDS011;10526;50.850;12.928;2022-09-03T05:51:54;9.77;;;3.22;;
20729;SDS011;10526;50.850;12.928;2022-09-03T05:56:18;11.05;;;4.20;;
20729;SDS011;10526;50.850;12.928;2022-09-03T06:00:42;9.18;;;2.63;;
20729;SDS011;10526;50.850;12.928;2022-09-03T06:05:04;5.50;;;2.05;;
20729;SDS011;10526;50.850;12.928;2022-09-03T06:09:28;7.53;;;1.90;;
20729;SDS011;10526;50.850;12.928;2022-09-03T06:13:50;6.70;;;1.95;;
20729;SDS011;10526;50.850;12.928;2022-09-03T06:18:12;4.47;;;2.03;;
20729;SDS011;10526;50.850;12.928;2022-09-03T06:22:34;7.80;;;1.85;;
20729;SDS011;10526;50.850;12.928;2022-09-03T06:26:56;14.85;;;2.10;;
20729;SDS011;10526;50.850;12.928;2022-09-03T06:31:18;12.38;;;2.25;;
20729;SDS011;10526;50.850;12.928;2022-09-03T06:35:41;7.40;;;1.50;;
20729;SDS011;10526;50.850;12.928;2022-09-03T06:40:04;2.78;;;1.50;;
20729;SDS011;10526;50.850;12.928;2022-09-03T06:44:33;3.92;;;1.50;;
20729;SDS011;10526;50.850;12.928;2022-09-03T06:48:55;4.28;;;1.50;;
20729;SDS011;10526;50.850;12.928;2022-09-03T06:53:17;3.75;;;1.33;;
20729;SDS011;10526;50.850;12.928;2022-09-03T06:57:39;3.97;;;1.40;;
20729;SDS011;10526;50.850;12.928;2022-09-03T07:02:01;4.38;;;1.52;;
20729;SDS011;10526;50.850;12.928;2022-09-03T07:06:24;3.97;;;1.67;;
20729;SDS011;10526;50.850;12.928;2022-09-03T07:10:49;4.72;;;1.50;;
20729;SDS011;10526;50.850;12.928;2022-09-03T07:15:11;3.80;;;1.35;;
20729;SDS011;10526;50.850;12.928;2022-09-03T07:19:33;4.63;;;1.33;;
20729;SDS011;10526;50.850;12.928;2022-09-03T07:23:56;5.38;;;1.75;;
20729;SDS011;10526;50.850;12.928;2022-09-03T07:28:19;5.75;;;1.65;;
20729;SDS011;10526;50.850;12.928;2022-09-03T07:32:42;2.67;;;1.30;;
20729;SDS011;10526;50.850;12.928;2022-09-03T07:37:04;2.45;;;1.38;;
20729;SDS011;10526;50.850;12.928;2022-09-03T07:41:27;3.42;;;1.33;;
20729;SDS011;10526;50.850;12.928;2022-09-03T07:45:53;3.08;;;1.15;;
20729;SDS011;10526;50.850;12.928;2022-09-03T07:50:18;3.15;;;1.48;;
20729;SDS011;10526;50.850;12.928;2022-09-03T07:54:41;2.75;;;1.30;;
20729;SDS011;10526;50.850;12.928;2022-09-03T07:59:04;4.65;;;1.48;;
20729;SDS011;10526;50.850;12.928;2022-09-03T08:03:26;3.42;;;1.50;;
20729;SDS011;10526;50.850;12.928;2022-09-03T08:07:48;4.53;;;1.20;;
20729;SDS011;10526;50.850;12.928;2022-09-03T08:12:11;4.45;;;1.48;;
20729;SDS011;10526;50.850;12.928;2022-09-03T08:16:37;6.28;;;1.38;;
20729;SDS011;10526;50.850;12.928;2022-09-03T08:21:10;3.38;;;1.40;;
20729;SDS011;10526;50.850;12.928;2022-09-03T08:25:39;3.03;;;1.30;;
20729;SDS011;10526;50.850;12.928;2022-09-03T08:30:01;7.50;;;1.40;;
20729;SDS011;10526;50.850;12.928;2022-09-03T08:34:24;2.60;;;1.30;;
20729;SDS011;10526;50.850;12.928;2022-09-03T08:38:46;3.40;;;1.60;;
20729;SDS011;10526;50.850;12.928;2022-09-03T08:43:14;4.22;;;1.35;;
20729;SDS011;10526;50.850;12.928;2022-09-03T08:48:21;3.90;;;1.50;;
20729;SDS011;10526;50.850;12.928;2022-09-03T08:52:47;3.83;;;1.55;;
20729;SDS011;10526;50.850;12.928;2022-09-03T08:57:23;4.55;;;1.70;;
20729;SDS011;10526;50.850;12.928;2022-09-03T09:11:43;3.00;;;1.52;;
20729;SDS011;10526;50.850;12.928;2022-09-03T09:17:01;3.50;;;1.30;;
20729;SDS011;10526;50.850;12.928;2022-09-03T09:21:41;4.37;;;1.53;;
20729;SDS011;10526;50.850;12.928;2022-09-03T09:26:14;4.47;;;1.40;;
20729;SDS011;10526;50.850;12.928;2022-09-03T09:30:45;11.27;;;1.70;;
20729;SDS011;10526;50.850;12.928;2022-09-03T09:35:09;4.57;;;1.27;;
20729;SDS011;10526;50.850;12.928;2022-09-03T09:39:32;4.18;;;1.25;;
20729;SDS011;10526;50.850;12.928;2022-09-03T09:43:58;3.70;;;1.50;;
20729;SDS011;10526;50.850;12.928;2022-09-03T09:48:27;2.63;;;1.50;;
20729;SDS011;10526;50.850;12.928;2022-09-03T09:53:02;4.40;;;1.45;;
20729;SDS011;10526;50.850;12.928;2022-09-03T09:57:34;5.78;;;1.50;;
20729;SDS011;10526;50.850;12.928;2022-09-03T10:02:09;5.90;;;1.90;;
20729;SDS011;10526;50.850;12.928;2022-09-03T10:06:42;3.38;;;1.38;;
20729;SDS011;10526;50.850;12.928;2022-09-03T10:11:20;5.55;;;1.55;;
20729;SDS011;10526;50.850;12.928;2022-09-03T10:16:02;4.53;;;1.38;;
20729;SDS011;10526;50.850;12.928;2022-09-03T10:30:55;3.13;;;1.40;;
20729;SDS011;10526;50.850;12.928;2022-09-03T10:35:36;3.17;;;1.30;;
20729;SDS011;10526;50.850;12.928;2022-09-03T10:45:27;5.25;;;1.60;;
20729;SDS011;10526;50.850;12.928;2022-09-03T10:54:54;2.10;;;1.40;;
20729;SDS011;10526;50.850;12.928;2022-09-03T11:04:37;3.65;;;1.38;;
20729;SDS011;10526;50.850;12.928;2022-09-03T11:14:02;6.28;;;1.75;;
20729;SDS011;10526;50.850;12.928;2022-09-03T11:18:32;4.30;;;1.35;;
20729;SDS011;10526;50.850;12.928;2022-09-03T11:23:07;4.28;;;1.80;;
20729;SDS011;10526;50.850;12.928;2022-09-03T11:37:06;3.42;;;1.38;;
20729;SDS011;10526;50.850;12.928;2022-09-03T11:42:00;6.25;;;1.60;;
20729;SDS011;10526;50.850;12.928;2022-09-03T11:46:29;4.78;;;1.40;;
20729;SDS011;10526;50.850;12.928;2022-09-03T11:50:53;4.15;;;1.40;;
20729;SDS011;10526;50.850;12.928;2022-09-03T12:00:07;3.45;;;1.40;;
20729;SDS011;10526;50.850;12.928;2022-09-03T12:04:56;4.00;;;1.60;;
20729;SDS011;10526;50.850;12.928;2022-09-03T12:14:57;3.92;;;1.60;;
20729;SDS011;10526;50.850;12.928;2022-09-03T12:20:09;3.22;;;1.30;;
20729;SDS011;10526;50.850;12.928;2022-09-03T12:24:35;5.88;;;1.83;;
20729;SDS011;10526;50.850;12.928;2022-09-03T12:28:58;2.58;;;1.45;;
20729;SDS011;10526;50.850;12.928;2022-09-03T12:33:21;2.22;;;1.38;;
20729;SDS011;10526;50.850;12.928;2022-09-03T12:37:44;5.82;;;1.75;;
20729;SDS011;10526;50.850;12.928;2022-09-03T12:42:27;4.40;;;1.50;;
20729;SDS011;10526;50.850;12.928;2022-09-03T12:46:59;5.60;;;1.50;;
20729;SDS011;10526;50.850;12.928;2022-09-03T12:51:47;4.60;;;1.65;;
20729;SDS011;10526;50.850;12.928;2022-09-03T12:56:16;3.88;;;1.80;;
20729;SDS011;10526;50.850;12.928;2022-09-03T13:00:44;4.35;;;1.70;;
20729;SDS011;10526;50.850;12.928;2022-09-03T13:05:12;4.65;;;1.70;;
20729;SDS011;10526;50.850;12.928;2022-09-03T13:09:40;4.75;;;1.70;;
20729;SDS011;10526;50.850;12.928;2022-09-03T13:14:04;4.03;;;1.60;;
20729;SDS011;10526;50.850;12.928;2022-09-03T13:18:41;3.65;;;1.52;;
20729;SDS011;10526;50.850;12.928;2022-09-03T13:23:33;4.03;;;1.50;;
20729;SDS011;10526;50.850;12.928;2022-09-03T13:33:06;5.22;;;1.60;;
20729;SDS011;10526;50.850;12.928;2022-09-03T13:42:35;8.00;;;1.60;;
20729;SDS011;10526;50.850;12.928;2022-09-03T13:51:37;4.53;;;1.90;;
20729;SDS011;10526;50.850;12.928;2022-09-03T13:56:06;3.75;;;1.98;;
20729;SDS011;10526;50.850;12.928;2022-09-03T14:01:38;3.85;;;1.60;;
20729;SDS011;10526;50.850;12.928;2022-09-03T14:06:40;5.93;;;1.48;;
20729;SDS011;10526;50.850;12.928;2022-09-03T14:15:48;4.35;;;1.70;;
20729;SDS011;10526;50.850;12.928;2022-09-03T14:20:34;4.20;;;1.67;;
20729;SDS011;10526;50.850;12.928;2022-09-03T14:25:24;5.90;;;1.70;;
20729;SDS011;10526;50.850;12.928;2022-09-03T14:29:52;6.40;;;1.83;;
20729;SDS011;10526;50.850;12.928;2022-09-03T14:39:21;4.32;;;1.48;;
20729;SDS011;10526;50.850;12.928;2022-09-03T15:00:05;7.63;;;1.50;;
20729;SDS011;10526;50.850;12.928;2022-09-03T15:14:55;3.33;;;1.45;;
20729;SDS011;10526;50.850;12.928;2022-09-03T15:28:58;2.25;;;1.30;;
20729;SDS011;10526;50.850;12.928;2022-09-03T15:38:45;3.33;;;1.70;;
20729;SDS011;10526;50.850;12.928;2022-09-03T15:43:36;5.88;;;1.38;;
20729;SDS011;10526;50.850;12.928;2022-09-03T15:48:05;3.35;;;1.27;;
20729;SDS011;10526;50.850;12.928;2022-09-03T15:57:32;3.22;;;1.70;;
20729;SDS011;10526;50.850;12.928;2022-09-03T16:02:30;4.30;;;1.40;;
20729;SDS011;10526;50.850;12.928;2022-09-03T16:11:59;2.13;;;1.33;;
20729;SDS011;10526;50.850;12.928;2022-09-03T16:16:44;4.65;;;1.58;;
20729;SDS011;10526;50.850;12.928;2022-09-03T16:59:58;2.90;;;1.80;;
20729;SDS011;10526;50.850;12.928;2022-09-03T17:24:16;10.13;;;3.40;;
20729;SDS011;10526;50.850;12.928;2022-09-03T17:29:27;7.95;;;2.13;;
20729;SDS011;10526;50.850;12.928;2022-09-03T17:53:16;9.85;;;2.90;;
20729;SDS011;10526;50.850;12.928;2022-09-03T17:57:49;7.82;;;2.70;;
20729;SDS011;10526;50.850;12.928;2022-09-03T18:02:50;8.00;;;2.55;;
20729;SDS011;10526;50.850;12.928;2022-09-03T18:17:26;5.03;;;2.33;;
20729;SDS011;10526;50.850;12.928;2022-09-03T18:22:07;11.02;;;3.33;;
20729;SDS011;10526;50.850;12.928;2022-09-03T18:26:56;8.00;;;3.10;;
20729;SDS011;10526;50.850;12.928;2022-09-03T18:31:43;8.95;;;2.67;;
20729;SDS011;10526;50.850;12.928;2022-09-03T18:36:24;7.13;;;2.50;;
20729;SDS011;10526;50.850;12.928;2022-09-03T18:52:15;6.38;;;2.10;;
20729;SDS011;10526;50.850;12.928;2022-09-03T18:57:28;5.20;;;2.38;;
20729;SDS011;10526;50.850;12.928;2022-09-03T19:07:51;7.47;;;2.22;;
20729;SDS011;10526;50.850;12.928;2022-09-03T19:23:14;5.10;;;2.38;;
20729;SDS011;10526;50.850;12.928;2022-09-03T19:28:02;5.93;;;2.35;;
20729;SDS011;10526;50.850;12.928;2022-09-03T19:53:31;8.32;;;2.88;;
20729;SDS011;10526;50.850;12.928;2022-09-03T19:58:16;8.02;;;2.97;;
20729;SDS011;10526;50.850;12.928;2022-09-03T20:03:04;9.38;;;2.70;;
20729;SDS011;10526;50.850;12.928;2022-09-03T20:07:46;7.35;;;3.35;;
20729;SDS011;10526;50.850;12.928;2022-09-03T20:12:36;10.07;;;3.58;;
20729;SDS011;10526;50.850;12.928;2022-09-03T20:32:28;11.35;;;2.97;;
20729;SDS011;10526;50.850;12.928;2022-09-03T20:46:53;5.78;;;2.60;;
20729;SDS011;10526;50.850;12.928;2022-09-03T20:51:24;10.20;;;3.08;;
20729;SDS011;10526;50.850;12.928;2022-09-03T20:55:56;8.27;;;2.95;;
20729;SDS011;10526;50.850;12.928;2022-09-03T21:00:27;8.90;;;3.15;;
20729;SDS011;10526;50.850;12.928;2022-09-03T21:05:19;6.03;;;2.88;;
20729;SDS011;10526;50.850;12.928;2022-09-03T21:10:00;7.60;;;3.05;;
20729;SDS011;10526;50.850;12.928;2022-09-03T21:15:24;7.28;;;2.95;;
20729;SDS011;10526;50.850;12.928;2022-09-03T21:25:11;8.18;;;3.42;;
20729;SDS011;10526;50.850;12.928;2022-09-03T21:29:42;9.48;;;3.65;;
20729;SDS011;10526;50.850;12.928;2022-09-03T21:34:23;7.82;;;3.42;;
20729;SDS011;10526;50.850;12.928;2022-09-03T21:39:37;7.60;;;3.20;;
20729;SDS011;10526;50.850;12.928;2022-09-03T21:49:08;8.73;;;3.65;;
20729;SDS011;10526;50.850;12.928;2022-09-03T21:53:39;8.68;;;3.33;;
20729;SDS011;10526;50.850;12.928;2022-09-03T21:58:25;11.63;;;3.88;;
20729;SDS011;10526;50.850;12.928;2022-09-03T22:02:56;13.63;;;3.85;;
20729;SDS011;10526;50.850;12.928;2022-09-03T22:17:38;9.45;;;3.72;;
20729;SDS011;10526;50.850;12.928;2022-09-03T22:22:19;13.90;;;4.05;;
20729;SDS011;10526;50.850;12.928;2022-09-03T22:32:34;8.02;;;3.35;;
20729;SDS011;10526;50.850;12.928;2022-09-03T22:37:22;8.73;;;3.15;;
20729;SDS011;10526;50.850;12.928;2022-09-03T22:41:59;6.72;;;3.15;;
20729;SDS011;10526;50.850;12.928;2022-09-03T22:47:17;14.60;;;3.80;;
20729;SDS011;10526;50.850;12.928;2022-09-03T22:56:57;9.43;;;3.75;;
20729;SDS011;10526;50.850;12.928;2022-09-03T23:06:16;9.98;;;3.85;;
20729;SDS011;10526;50.850;12.928;2022-09-03T23:15:43;8.32;;;3.38;;
20729;SDS011;10526;50.850;12.928;2022-09-03T23:20:21;9.73;;;3.90;;
20729;SDS011;10526;50.850;12.928;2022-09-03T23:29:33;11.18;;;4.32;;
20729;SDS011;10526;50.850;12.928;2022-09-03T23:34:07;8.73;;;3.75;;
20729;SDS011;10526;50.850;12.928;2022-09-03T23:43:31;12.82;;;4.60;;
